This is the latest recevied weather packets stored in our database for station/object N9OJR. If no packets are shown the sender has not sent any weather packets the latest 10 day(s).
| Time | Temp. | Humidity | Pressure | Rain* | Wind** | Luminosity | Snow |
|---|---|---|---|---|---|---|---|
| 1778085530 | 12.78° C | 64% | 1008.1 hPa | 0 mm | - | 321 W/m² | - |
| 1778085224 | 13.33° C | 65% | 1008.3 hPa | 0 mm | - | 517 W/m² | - |
| 1778084920 | 13.89° C | 64% | 1008.1 hPa | 0 mm | - | 611 W/m² | - |
| 1778084617 | 13.89° C | 65% | 1008.1 hPa | 0 mm | - | 923 W/m² | - |
| 1778084309 | 13.33° C | 66% | 1008.2 hPa | 0 mm | - | 826 W/m² | - |
| 1778084006 | 13.89° C | 65% | 1007.7 hPa | 0 mm | - | 910 W/m² | - |
| 1778083704 | 12.78° C | 72% | 1007.8 hPa | 0 mm | - | 935 W/m² | - |
| 1778083400 | 13.33° C | 69% | 1007.8 hPa | 0 mm | - | 674 W/m² | - |
| 1778083099 | 12.78° C | 71% | 1008 hPa | 0 mm | - | 861 W/m² | - |
| 1778082795 | 12.22° C | 75% | 1007.7 hPa | 0 mm | - | 718 W/m² | - |
| 1778081668 | 12.22° C | 71% | 1008 hPa | 0 mm | - | 500 W/m² | - |
| 1778081365 | 11.67° C | 72% | 1007.7 hPa | 0 mm | - | 377 W/m² | - |
| 1778081062 | 11.67° C | 70% | 1007.7 hPa | 0 mm | - | 384 W/m² | - |
| 1778080761 | 11.67° C | 71% | 1007.3 hPa | 0 mm | - | 503 W/m² | - |
| 1778080457 | 11.11° C | 75% | 1007.3 hPa | 0 mm | - | 520 W/m² | - |
| 1778080155 | 11.11° C | 76% | 1007.2 hPa | 0 mm | - | 485 W/m² | - |
| 1778079851 | 10.56° C | 79% | 1007.1 hPa | 0 mm | - | 579 W/m² | - |
| 1778079548 | 10.56° C | 79% | 1007.2 hPa | 0 mm | - | 324 W/m² | - |
| 1778079244 | 10.56° C | 81% | 1007.1 hPa | 0 mm | - | 310 W/m² | - |
| 1778078942 | 10° C | 83% | 1006.9 hPa | 0 mm | - | 321 W/m² | - |
| 1778078638 | 9.44° C | 86% | 1007.2 hPa | 0 mm | - | 272 W/m² | - |
| 1778078336 | 9.44° C | 90% | 1007.1 hPa | 0 mm | - | 280 W/m² | - |
| 1778078033 | 8.89° C | 97% | 1006.9 hPa | 0 mm | - | 300 W/m² | - |
| 1778077732 | 8.33° C | 99% | 1007 hPa | 0 mm | - | 269 W/m² | - |
| 1778077429 | 7.78° C | 99% | 1006.9 hPa | 0 mm | - | 275 W/m² | - |
* Rain latest hour (hover to see other rain measurements)
** Current wind speed in m/s (hover to see current wind gust speed)